createdAt,value
2022-12-20T00:00:12.145Z,10.13
2022-12-20T00:02:43.616Z,6.72
2022-12-20T00:05:15.181Z,6.00
2022-12-20T00:07:46.654Z,5.72
2022-12-20T00:10:18.095Z,6.35
2022-12-20T00:12:49.517Z,6.60
2022-12-20T00:15:21.014Z,7.05
2022-12-20T00:17:52.547Z,6.68
2022-12-20T00:20:25.151Z,7.70
2022-12-20T00:22:56.851Z,9.63
2022-12-20T00:25:28.879Z,8.15
2022-12-20T00:28:00.336Z,7.20
2022-12-20T00:30:31.733Z,5.68
2022-12-20T00:33:03.144Z,6.82
2022-12-20T00:35:34.715Z,6.30
2022-12-20T00:38:06.145Z,5.83
2022-12-20T00:40:37.602Z,8.88
2022-12-20T00:43:09.132Z,4.82
2022-12-20T00:45:40.555Z,6.95
2022-12-20T00:48:11.947Z,5.72
2022-12-20T00:50:43.360Z,6.83
2022-12-20T00:53:14.782Z,8.20
2022-12-20T00:55:46.805Z,6.90
2022-12-20T00:58:18.219Z,6.45
2022-12-20T01:00:55.774Z,7.53
2022-12-20T01:03:28.981Z,6.25
2022-12-20T01:06:02.491Z,5.70
2022-12-20T01:08:33.979Z,5.93
2022-12-20T01:11:20.826Z,4.75
2022-12-20T01:13:54.968Z,5.38
2022-12-20T01:16:36.181Z,5.13
2022-12-20T01:19:09.095Z,5.10
2022-12-20T01:21:41.695Z,5.53
2022-12-20T01:24:19.395Z,7.90
2022-12-20T01:26:50.862Z,8.18
2022-12-20T01:29:22.314Z,5.93
2022-12-20T01:31:53.794Z,6.10
2022-12-20T01:34:25.316Z,5.57
2022-12-20T01:36:56.760Z,4.90
2022-12-20T01:39:28.182Z,5.35
2022-12-20T01:41:59.638Z,5.30
2022-12-20T01:44:31.058Z,6.75
2022-12-20T01:47:02.701Z,5.87
2022-12-20T01:49:39.144Z,6.47
2022-12-20T01:52:26.177Z,6.93
2022-12-20T01:55:18.319Z,6.53
2022-12-20T01:57:56.256Z,5.23
2022-12-20T02:00:28.363Z,5.53
2022-12-20T02:03:04.012Z,5.70
2022-12-20T02:05:38.227Z,4.35
2022-12-20T02:08:11.779Z,5.32
2022-12-20T02:10:48.888Z,5.95
2022-12-20T02:13:35.493Z,6.72
2022-12-20T02:16:07.019Z,7.77
2022-12-20T02:18:46.635Z,5.88
2022-12-20T02:21:33.708Z,5.47
2022-12-20T02:24:20.023Z,6.33
2022-12-20T02:27:15.830Z,4.70
2022-12-20T02:30:02.767Z,6.80
2022-12-20T02:32:40.579Z,5.65
2022-12-20T02:35:14.901Z,7.50
2022-12-20T02:37:54.959Z,5.33
2022-12-20T02:40:32.334Z,4.43
2022-12-20T02:43:06.991Z,6.65
2022-12-20T02:45:38.679Z,5.43
2022-12-20T02:48:11.448Z,7.38
2022-12-20T02:50:49.298Z,4.68
2022-12-20T02:53:22.451Z,6.40
2022-12-20T02:56:09.420Z,6.68
2022-12-20T02:58:51.235Z,3.88
2022-12-20T03:01:30.972Z,5.45
2022-12-20T03:04:03.800Z,6.07
2022-12-20T03:06:35.248Z,5.93
2022-12-20T03:09:06.689Z,5.45
2022-12-20T03:11:38.106Z,7.00
2022-12-20T03:14:09.552Z,5.85
2022-12-20T03:16:41.084Z,6.03
2022-12-20T03:19:12.598Z,7.72
2022-12-20T03:21:44.062Z,7.30
2022-12-20T03:24:15.545Z,5.10
2022-12-20T03:26:47.078Z,4.55
2022-12-20T03:29:18.642Z,3.58
2022-12-20T03:31:50.156Z,4.38
2022-12-20T03:34:21.575Z,4.20
2022-12-20T03:36:53.035Z,3.92
2022-12-20T03:39:24.531Z,6.63
2022-12-20T03:41:56.013Z,4.57
2022-12-20T03:44:27.501Z,6.93
2022-12-20T03:46:58.992Z,4.53
2022-12-20T03:49:30.440Z,5.45
2022-12-20T03:52:01.871Z,5.33
2022-12-20T03:54:34.120Z,5.40
2022-12-20T03:57:05.719Z,5.55
2022-12-20T03:59:37.224Z,5.20
2022-12-20T04:02:09.275Z,6.32
2022-12-20T04:04:40.776Z,5.25
2022-12-20T04:07:12.271Z,6.03
2022-12-20T04:09:43.793Z,4.85
2022-12-20T04:12:15.274Z,4.97
2022-12-20T04:14:46.740Z,6.35
2022-12-20T04:17:18.160Z,5.38
2022-12-20T04:19:49.606Z,5.88
2022-12-20T04:22:21.080Z,5.18
2022-12-20T04:24:52.525Z,5.20
2022-12-20T04:27:24.007Z,4.90
2022-12-20T04:29:55.442Z,6.53
2022-12-20T04:32:26.885Z,7.63
2022-12-20T04:34:58.281Z,8.82
2022-12-20T04:37:31.231Z,7.28
2022-12-20T04:40:02.709Z,5.72
2022-12-20T04:42:34.099Z,7.68
2022-12-20T04:45:05.907Z,6.72
2022-12-20T04:47:37.368Z,6.05
2022-12-20T04:50:09.085Z,6.25
2022-12-20T04:52:45.679Z,6.93
2022-12-20T04:55:19.292Z,7.40
2022-12-20T04:57:50.780Z,6.93
2022-12-20T05:00:25.654Z,4.53
2022-12-20T05:02:57.160Z,4.70
2022-12-20T05:05:29.146Z,5.18
2022-12-20T05:08:00.673Z,7.55
2022-12-20T05:10:32.186Z,6.57
2022-12-20T05:13:08.979Z,4.75
2022-12-20T05:15:42.102Z,4.78
2022-12-20T05:18:13.596Z,7.07
2022-12-20T05:20:45.131Z,7.05
2022-12-20T05:23:16.543Z,7.67
2022-12-20T05:25:49.940Z,5.57
2022-12-20T05:28:21.364Z,6.85
2022-12-20T05:30:52.773Z,5.93
2022-12-20T05:33:28.930Z,6.82
2022-12-20T05:36:03.830Z,6.60
2022-12-20T05:38:35.276Z,7.03
2022-12-20T05:41:06.733Z,5.97
2022-12-20T05:43:38.221Z,5.88
2022-12-20T05:46:10.471Z,6.32
2022-12-20T05:48:41.931Z,5.18
2022-12-20T05:51:13.374Z,6.38
2022-12-20T05:53:44.801Z,7.10
2022-12-20T05:56:17.364Z,6.27
2022-12-20T05:58:48.801Z,5.85
2022-12-20T06:01:20.333Z,5.47
2022-12-20T06:03:52.045Z,3.78
2022-12-20T06:06:23.473Z,4.53
2022-12-20T06:08:54.997Z,6.68
2022-12-20T06:11:30.170Z,4.50
2022-12-20T06:14:01.945Z,4.90
2022-12-20T06:16:33.551Z,5.32
2022-12-20T06:19:05.099Z,4.43
2022-12-20T06:21:36.632Z,5.30
2022-12-20T06:24:08.347Z,4.10
2022-12-20T06:26:39.892Z,5.33
2022-12-20T06:29:11.390Z,5.85
2022-12-20T06:31:43.003Z,7.07
2022-12-20T06:34:14.583Z,4.22
2022-12-20T06:36:46.365Z,5.30
2022-12-20T06:39:17.885Z,5.55
2022-12-20T06:41:49.440Z,4.53
2022-12-20T06:44:20.969Z,5.65
2022-12-20T06:46:52.512Z,4.68
2022-12-20T06:49:24.051Z,4.53
2022-12-20T06:51:55.567Z,3.63
2022-12-20T06:54:27.059Z,4.75
2022-12-20T06:56:58.612Z,5.30
2022-12-20T06:59:30.172Z,6.38
2022-12-20T07:02:02.703Z,3.60
2022-12-20T07:04:34.388Z,5.38
2022-12-20T07:07:06.194Z,4.97
2022-12-20T07:09:37.673Z,6.95
2022-12-20T07:12:09.820Z,4.53
2022-12-20T07:14:41.344Z,3.90
2022-12-20T07:17:12.964Z,5.25
2022-12-20T07:19:50.649Z,4.28
2022-12-20T07:22:22.582Z,4.18
2022-12-20T07:24:54.119Z,4.93
2022-12-20T07:27:25.662Z,5.15
2022-12-20T07:29:57.612Z,4.85
2022-12-20T07:32:29.139Z,5.95
2022-12-20T07:35:00.685Z,5.53
2022-12-20T07:37:32.201Z,6.90
2022-12-20T07:40:05.276Z,4.78
2022-12-20T07:42:39.222Z,5.95
2022-12-20T07:45:13.059Z,4.13
2022-12-20T07:47:44.552Z,6.53
2022-12-20T07:50:16.173Z,3.20
2022-12-20T07:52:50.048Z,5.35
2022-12-20T07:55:21.717Z,3.78
2022-12-20T07:57:59.006Z,6.35
2022-12-20T08:00:31.357Z,7.53
2022-12-20T08:03:08.973Z,6.38
2022-12-20T08:05:44.260Z,5.78
2022-12-20T08:08:16.728Z,7.18
2022-12-20T08:10:49.277Z,6.20
2022-12-20T08:13:20.919Z,5.30
2022-12-20T08:15:52.509Z,7.03
2022-12-20T08:18:24.060Z,7.13
2022-12-20T08:20:56.359Z,7.53
2022-12-20T08:23:28.096Z,6.43
2022-12-20T08:26:02.547Z,4.68
2022-12-20T08:28:34.093Z,6.13
2022-12-20T08:31:08.511Z,7.07
2022-12-20T08:33:40.161Z,6.63
2022-12-20T08:36:13.284Z,5.40
2022-12-20T08:38:44.809Z,6.83
2022-12-20T08:41:17.030Z,6.18
2022-12-20T08:43:48.528Z,4.80
2022-12-20T08:46:20.187Z,4.63
2022-12-20T08:48:52.509Z,5.43
2022-12-20T08:51:24.059Z,4.63
2022-12-20T08:53:55.800Z,8.50
2022-12-20T08:56:27.349Z,6.82
2022-12-20T08:58:58.930Z,6.25
2022-12-20T09:01:30.544Z,6.47
2022-12-20T09:04:02.185Z,5.90
2022-12-20T09:06:35.260Z,4.88
2022-12-20T09:09:06.866Z,5.25
2022-12-20T09:11:38.367Z,6.00
2022-12-20T09:14:09.946Z,6.20
2022-12-20T09:16:41.469Z,6.30
2022-12-20T09:19:14.368Z,7.13
2022-12-20T09:21:45.966Z,5.80
2022-12-20T09:24:17.507Z,6.47
2022-12-20T09:26:49.159Z,6.47
2022-12-20T09:29:28.463Z,5.47
2022-12-20T09:32:03.775Z,5.60
2022-12-20T09:34:35.287Z,8.05
2022-12-20T09:37:06.775Z,5.53
2022-12-20T09:39:38.318Z,7.20
2022-12-20T09:42:09.949Z,6.37
2022-12-20T09:44:42.777Z,6.95
2022-12-20T09:47:22.886Z,6.85
2022-12-20T09:49:57.342Z,10.15
2022-12-20T09:52:52.709Z,8.05
2022-12-20T09:55:35.655Z,6.05
2022-12-20T09:58:21.888Z,6.90
2022-12-20T10:00:54.454Z,8.27
2022-12-20T10:03:30.366Z,7.37
2022-12-20T10:06:29.205Z,10.52
2022-12-20T10:09:23.996Z,8.30
2022-12-20T10:12:13.984Z,7.35
2022-12-20T10:15:00.760Z,6.57
2022-12-20T10:18:03.776Z,7.88
2022-12-20T10:20:50.697Z,8.52
2022-12-20T10:23:39.921Z,6.35
2022-12-20T10:26:13.581Z,8.90
2022-12-20T10:28:48.054Z,9.63
2022-12-20T10:31:24.397Z,10.13
2022-12-20T10:33:55.958Z,8.15
2022-12-20T10:36:36.500Z,6.05
2022-12-20T10:39:09.994Z,9.35
2022-12-20T10:41:41.487Z,6.90
2022-12-20T10:44:30.337Z,8.50
2022-12-20T10:47:02.061Z,7.30
2022-12-20T10:49:39.303Z,8.73
2022-12-20T10:52:14.372Z,8.23
2022-12-20T10:54:46.635Z,8.02
2022-12-20T10:57:24.727Z,6.77
2022-12-20T11:00:01.810Z,7.73
2022-12-20T11:02:42.733Z,8.23
2022-12-20T11:05:14.656Z,7.25
2022-12-20T11:08:34.100Z,8.40
2022-12-20T11:11:23.409Z,6.53
2022-12-20T11:14:14.382Z,7.38
2022-12-20T11:16:47.690Z,6.70
2022-12-20T11:19:40.851Z,7.20
2022-12-20T11:22:34.067Z,8.88
2022-12-20T11:25:20.987Z,8.73
2022-12-20T11:28:11.027Z,6.63
2022-12-20T11:30:54.762Z,7.00
2022-12-20T11:33:56.189Z,6.55
2022-12-20T11:36:42.045Z,8.10
2022-12-20T11:40:12.152Z,8.32
2022-12-20T11:43:23.619Z,8.90
2022-12-20T11:46:22.538Z,9.57
2022-12-20T11:49:13.322Z,7.97
2022-12-20T11:51:53.115Z,6.18
2022-12-20T11:54:36.572Z,8.55
2022-12-20T11:57:20.174Z,8.82
2022-12-20T11:59:57.048Z,7.80
2022-12-20T12:02:42.474Z,7.70
2022-12-20T12:05:23.696Z,9.35
2022-12-20T12:08:03.890Z,9.77
2022-12-20T12:10:40.936Z,8.57
2022-12-20T12:13:22.273Z,8.85
2022-12-20T12:16:12.480Z,7.70
2022-12-20T12:18:44.484Z,9.18
2022-12-20T12:21:26.367Z,6.47
2022-12-20T12:24:05.132Z,5.85
2022-12-20T12:26:38.906Z,9.60
2022-12-20T12:29:14.225Z,8.35
2022-12-20T12:32:04.730Z,7.47
2022-12-20T12:34:55.157Z,7.88
2022-12-20T12:37:39.560Z,9.35
2022-12-20T12:40:52.452Z,8.50
2022-12-20T12:44:18.828Z,9.57
2022-12-20T12:46:59.226Z,8.85
2022-12-20T12:49:32.533Z,8.00
2022-12-20T12:52:05.470Z,8.57
2022-12-20T12:54:41.431Z,6.88
2022-12-20T12:57:15.999Z,9.13
2022-12-20T12:59:49.595Z,7.17
2022-12-20T13:02:27.447Z,8.27
2022-12-20T13:05:25.683Z,9.60
2022-12-20T13:07:57.850Z,7.70
2022-12-20T13:10:29.457Z,9.23
2022-12-20T13:13:02.484Z,9.45
2022-12-20T13:15:34.024Z,7.10
2022-12-20T13:18:11.780Z,7.45
2022-12-20T13:21:03.511Z,8.45
2022-12-20T13:23:35.075Z,7.57
2022-12-20T13:27:01.701Z,6.63
2022-12-20T13:29:35.678Z,7.50
2022-12-20T13:32:45.892Z,7.53
2022-12-20T13:35:26.259Z,7.40
2022-12-20T13:38:12.851Z,7.35
2022-12-20T13:40:58.896Z,6.73
2022-12-20T13:43:41.942Z,6.77
2022-12-20T13:46:21.506Z,7.53
2022-12-20T13:49:05.936Z,9.23
2022-12-20T13:51:37.655Z,8.60
2022-12-20T13:54:23.152Z,9.02
2022-12-20T13:56:58.361Z,9.05
2022-12-20T13:59:32.588Z,11.13
2022-12-20T14:02:17.088Z,9.27
2022-12-20T14:04:57.427Z,8.73
2022-12-20T14:07:31.799Z,8.48
2022-12-20T14:10:16.349Z,9.52
2022-12-20T14:12:52.067Z,9.00
2022-12-20T14:15:28.232Z,9.50
2022-12-20T14:18:22.570Z,10.73
2022-12-20T14:21:19.476Z,9.55
2022-12-20T14:23:54.281Z,8.13
2022-12-20T14:26:29.390Z,8.05
2022-12-20T14:29:01.354Z,9.50
2022-12-20T14:31:32.923Z,8.65
2022-12-20T14:34:10.415Z,8.93
2022-12-20T14:36:44.542Z,11.25
2022-12-20T14:39:35.227Z,11.35
2022-12-20T14:42:09.886Z,9.80
2022-12-20T14:44:41.402Z,11.60
2022-12-20T14:47:25.569Z,11.43
2022-12-20T14:50:06.878Z,12.25
2022-12-20T14:52:41.503Z,11.48
2022-12-20T14:55:29.873Z,13.15
2022-12-20T14:58:01.502Z,12.93
2022-12-20T15:00:34.832Z,12.65
2022-12-20T15:03:18.067Z,13.18
2022-12-20T15:05:55.666Z,12.73
2022-12-20T15:08:30.482Z,13.38
2022-12-20T15:11:22.556Z,13.63
2022-12-20T15:13:55.026Z,12.50
2022-12-20T15:16:29.074Z,12.95
2022-12-20T15:19:02.546Z,13.70
2022-12-20T15:21:36.630Z,14.40
2022-12-20T15:24:12.842Z,13.07
2022-12-20T15:26:44.631Z,12.90
2022-12-20T15:29:22.885Z,13.57
2022-12-20T15:32:15.860Z,13.48
2022-12-20T15:34:47.411Z,14.35
2022-12-20T15:37:19.269Z,13.40
2022-12-20T15:39:50.900Z,14.13
2022-12-20T15:42:23.728Z,13.20
2022-12-20T15:44:55.306Z,14.38
2022-12-20T15:47:26.844Z,13.13
2022-12-20T15:49:58.334Z,13.35
2022-12-20T15:52:29.906Z,11.43
2022-12-20T15:55:01.410Z,12.27
2022-12-20T15:57:32.965Z,12.00
2022-12-20T16:00:05.115Z,13.80
2022-12-20T16:02:36.904Z,12.57
2022-12-20T16:05:11.600Z,12.90
2022-12-20T16:07:43.130Z,12.02
2022-12-20T16:10:15.470Z,14.10
2022-12-20T16:12:47.088Z,12.27
2022-12-20T16:15:22.861Z,13.98
2022-12-20T16:17:54.422Z,12.82
2022-12-20T16:20:25.926Z,12.60
2022-12-20T16:22:57.459Z,12.45
2022-12-20T16:25:32.655Z,12.57
2022-12-20T16:28:04.520Z,11.75
2022-12-20T16:30:36.077Z,11.33
2022-12-20T16:33:11.568Z,12.30
2022-12-20T16:35:43.084Z,12.20
2022-12-20T16:38:14.684Z,11.45
2022-12-20T16:40:46.232Z,11.83
2022-12-20T16:43:17.795Z,12.32
2022-12-20T16:45:49.418Z,12.53
2022-12-20T16:48:20.932Z,13.05
2022-12-20T16:50:52.527Z,13.67
2022-12-20T16:53:24.068Z,13.75
2022-12-20T16:55:55.616Z,15.97
2022-12-20T16:58:52.373Z,15.88
2022-12-20T17:01:20.957Z,15.38
2022-12-20T17:03:52.526Z,15.90
2022-12-20T17:06:24.227Z,16.55
2022-12-20T17:08:56.054Z,17.05
2022-12-20T17:11:30.785Z,18.17
2022-12-20T17:14:06.249Z,17.58
2022-12-20T17:16:41.332Z,18.20
2022-12-20T17:19:12.907Z,16.95
2022-12-20T17:24:34.143Z,18.25
2022-12-20T17:27:05.723Z,19.98
2022-12-20T17:29:37.246Z,19.48
2022-12-20T17:32:20.000Z,22.75
2022-12-20T17:34:51.537Z,22.05
2022-12-20T17:37:23.115Z,21.45
2022-12-20T17:39:54.656Z,25.17
2022-12-20T17:42:31.200Z,26.63
2022-12-20T17:45:03.447Z,27.67
2022-12-20T17:47:34.988Z,27.17
2022-12-20T17:50:07.195Z,27.23
2022-12-20T17:52:38.747Z,28.15
2022-12-20T17:55:16.760Z,28.83
2022-12-20T17:57:48.928Z,25.40
2022-12-20T18:00:26.368Z,25.10
2022-12-20T18:02:58.414Z,28.98
2022-12-20T18:05:30.460Z,22.70
2022-12-20T18:08:01.929Z,22.08
2022-12-20T18:10:33.399Z,27.35
2022-12-20T18:13:04.868Z,29.15
2022-12-20T18:15:38.248Z,20.70
2022-12-20T18:18:09.657Z,27.25
2022-12-20T18:20:41.077Z,27.33
2022-12-20T18:23:12.510Z,26.87
2022-12-20T18:25:43.971Z,25.95
2022-12-20T18:28:15.424Z,25.85
2022-12-20T18:30:46.920Z,28.35
2022-12-20T18:33:18.460Z,27.33
2022-12-20T18:35:49.887Z,25.75
2022-12-20T18:38:21.322Z,26.98
2022-12-20T18:40:52.777Z,23.20
2022-12-20T18:43:24.186Z,26.27
2022-12-20T18:45:55.674Z,23.70
2022-12-20T18:48:27.176Z,26.42
2022-12-20T18:51:10.100Z,26.33
2022-12-20T18:53:43.763Z,22.67
2022-12-20T18:56:20.172Z,24.52
2022-12-20T18:58:52.252Z,26.48
2022-12-20T19:01:28.706Z,29.52
2022-12-20T19:04:01.848Z,27.30
2022-12-20T19:06:33.762Z,24.97
2022-12-20T19:09:08.560Z,30.83
2022-12-20T19:11:40.381Z,24.23
2022-12-20T19:14:12.470Z,21.13
2022-12-20T19:16:44.011Z,36.08
2022-12-20T19:19:15.497Z,26.40
2022-12-20T19:21:46.985Z,21.83
2022-12-20T19:24:18.541Z,20.15
2022-12-20T19:26:50.002Z,21.10
2022-12-20T19:29:21.479Z,20.70
2022-12-20T19:31:52.961Z,18.50
2022-12-20T19:34:27.107Z,24.10
2022-12-20T19:37:02.089Z,19.63
2022-12-20T19:39:36.332Z,15.20
2022-12-20T19:42:23.618Z,17.88
2022-12-20T19:44:55.922Z,18.77
2022-12-20T19:47:27.371Z,22.13
2022-12-20T19:49:58.861Z,17.15
2022-12-20T19:52:30.275Z,14.63
2022-12-20T19:55:01.695Z,15.60
2022-12-20T19:57:33.789Z,16.80
2022-12-20T20:00:06.538Z,16.42
2022-12-20T20:02:38.021Z,18.50
2022-12-20T20:05:14.941Z,20.33
2022-12-20T20:07:47.005Z,12.48
2022-12-20T20:10:18.477Z,14.90
2022-12-20T20:12:49.880Z,13.63
2022-12-20T20:15:21.287Z,16.00
2022-12-20T20:17:52.711Z,11.20
2022-12-20T20:20:24.168Z,13.52
2022-12-20T20:22:55.622Z,11.90
2022-12-20T20:25:27.097Z,11.85
2022-12-20T20:27:58.548Z,12.40
2022-12-20T20:30:30.316Z,14.10
2022-12-20T20:33:01.798Z,13.02
2022-12-20T20:35:33.311Z,10.55
2022-12-20T20:38:05.180Z,13.05
2022-12-20T20:40:36.884Z,13.45
2022-12-20T20:43:08.299Z,15.77
2022-12-20T20:45:39.681Z,13.48
2022-12-20T20:48:11.186Z,11.27
2022-12-20T20:50:44.518Z,12.32
2022-12-20T20:53:15.969Z,14.43
2022-12-20T20:55:47.367Z,11.27
2022-12-20T20:58:18.877Z,13.48
2022-12-20T21:00:51.853Z,16.65
2022-12-20T21:03:23.292Z,14.48
2022-12-20T21:08:46.458Z,14.07
2022-12-20T21:11:18.088Z,14.68
2022-12-20T21:13:49.677Z,11.40
2022-12-20T21:16:21.377Z,12.13
2022-12-20T21:18:54.873Z,11.63
2022-12-20T21:21:27.334Z,14.13
2022-12-20T21:23:58.765Z,13.77
2022-12-20T21:26:30.463Z,11.40
2022-12-20T21:29:01.954Z,16.55
2022-12-20T21:31:33.557Z,14.13
2022-12-20T21:34:05.185Z,12.98
2022-12-20T21:36:36.677Z,16.33
2022-12-20T21:39:12.370Z,17.15
2022-12-20T21:41:43.774Z,12.32
2022-12-20T21:44:15.229Z,16.35
2022-12-20T21:46:46.667Z,16.80
2022-12-20T21:49:18.081Z,13.20
2022-12-20T21:51:49.541Z,12.83
2022-12-20T21:54:20.960Z,14.82
2022-12-20T21:56:52.394Z,14.00
2022-12-20T21:59:23.951Z,12.60
2022-12-20T22:01:55.511Z,12.65
2022-12-20T22:04:27.272Z,13.23
2022-12-20T22:06:58.715Z,12.97
2022-12-20T22:09:30.195Z,14.27
2022-12-20T22:12:01.616Z,15.05
2022-12-20T22:14:33.072Z,13.35
2022-12-20T22:17:04.484Z,13.82
2022-12-20T22:19:35.956Z,13.27
2022-12-20T22:22:07.414Z,13.65
2022-12-20T22:24:38.898Z,17.02
2022-12-20T22:27:11.633Z,15.18
2022-12-20T22:29:43.229Z,16.70
2022-12-20T22:32:14.696Z,15.07
2022-12-20T22:34:46.171Z,16.63
2022-12-20T22:37:17.569Z,16.42
2022-12-20T22:39:49.086Z,16.67
2022-12-20T22:42:20.748Z,16.33
2022-12-20T22:44:52.167Z,14.87
2022-12-20T22:47:23.559Z,15.55
2022-12-20T22:49:54.990Z,12.63
2022-12-20T22:52:26.526Z,14.20
2022-12-20T22:54:57.941Z,14.32
2022-12-20T22:57:29.357Z,16.17
2022-12-20T23:00:01.261Z,17.45
2022-12-20T23:02:32.837Z,14.38
2022-12-20T23:05:04.660Z,15.67
2022-12-20T23:07:36.084Z,15.02
2022-12-20T23:10:07.993Z,18.43
2022-12-20T23:12:39.405Z,17.27
2022-12-20T23:15:12.479Z,17.52
2022-12-20T23:17:43.879Z,12.18
2022-12-20T23:20:15.320Z,15.57
2022-12-20T23:22:46.737Z,16.50
2022-12-20T23:25:19.581Z,19.70
2022-12-20T23:27:51.222Z,11.95
2022-12-20T23:30:23.760Z,18.15
2022-12-20T23:32:55.274Z,16.83
2022-12-20T23:35:26.721Z,13.32
2022-12-20T23:37:58.128Z,17.13
2022-12-20T23:40:29.546Z,17.00
2022-12-20T23:43:00.968Z,14.20
2022-12-20T23:45:32.401Z,12.80
2022-12-20T23:48:04.065Z,13.23
2022-12-20T23:50:35.480Z,15.15
2022-12-20T23:53:06.901Z,16.15
2022-12-20T23:55:38.302Z,16.05
2022-12-20T23:58:09.701Z,14.23
